M/T Filos — 9HQB8 — position and weather

sailwx.info

Track history (hours):
 
Tides and Currents Weather Stations Pressure Air Temp Water Temp Dewpoint Dewpoint Depression Visibility Wind Speed Wind Dir Waves Ship Positions

M/T Filos

Last reported at 2015-May-29 07:32 UTC. Time now 2015-May-29 08:19 UTC.
Position N 46°09' W 001°14'.

Length 180 m; draft 7.4 m.

Type: Tanker. MMSI: 224561000.

Date/timePositionNaut miles runAvg speedWind from/ knotsBaromVisibWave heightAir tempDewpointWater temp
2015-May-29 07:32N 46°09' W 001°14'0 0.0
2015-May-29 06:32N 46°09' W 001°14'0 0.0
2015-May-29 05:32N 46°09' W 001°14'0 0.0
2015-May-29 04:32N 46°09' W 001°14'0 0.0
2015-May-29 03:32N 46°09' W 001°14'0 0.0
2015-May-29 02:32N 46°09' W 001°14'0 0.0
2015-May-29 01:32N 46°09' W 001°14'0 0.0
2015-May-29 00:33N 46°09' W 001°14'5 4.5
2015-May-28 23:32N 46°05' W 001°15'0 0.1
2015-May-28 22:32N 46°05' W 001°15'0 0.1
2015-May-28 21:33N 46°05' W 001°15'10 9.6
2015-May-28 20:33N 46°07' W 001°28'1211.5
2015-May-28 19:33N 46°07' W 001°45'10 9.7
2015-May-28 18:33N 45°57' W 001°43'1111.0
2015-May-28 17:33N 45°47' W 001°36'1111.0
2015-May-28 16:33N 45°37' W 001°30'1410.7
2015-May-28 15:17N 45°39' W 001°11'45 2.7
2015-May-27 22:33N 45°02' W 000°37'1312.8
2015-May-27 21:34N 45°14' W 000°44'1212.0
2015-May-27 20:33N 45°25' W 000°51'1611.5
2015-May-27 19:08N 45°37' W 001°06'8 9.6
2015-May-27 18:21N 45°39' W 001°16'8 9.8
2015-May-27 17:33N 45°36' W 001°27'1211.6
2015-May-27 16:34N 45°42' W 001°41'1111.5
2015-May-27 15:33N 45°48' W 001°55'1211.7
2015-May-27 14:34N 45°54' W 002°09'5011.6
2015-May-27 10:13N 46°22' W 003°10'811.6
2015-May-27 09:29N 46°27' W 003°19'1111.5
2015-May-27 08:31N 46°34' W 003°32'1111.3
2015-May-27 07:33N 46°41' W 003°44'1311.0
2015-May-27 06:24N 46°49' W 003°58'1210.7
2015-May-27 05:18N 46°57' W 004°12'810.8
2015-May-27 04:31N 47°02' W 004°21'1010.7
2015-May-27 03:33N 47°08' W 004°33'1110.9
2015-May-27 02:32N 47°15' W 004°46'50 7.1
2015-May-26 19:32N 47°50' W 005°39'168 9.2
2015-May-26 01:18N 49°59' W 002°55'810.4
2015-May-26 00:33N 50°01' W 002°44'6511.8
2015-May-25 19:03N 50°18' W 001°05'1113.3
2015-May-25 18:14N 50°20' W 000°49'912.4
2015-May-25 17:31N 50°23' W 000°36'2311.1
2015-May-25 15:29N 50°29' W 000°01'910.1
2015-May-25 14:33N 50°31' E 000°13'10 9.9
2015-May-25 13:33N 50°34' E 000°28'1010.3
2015-May-25 12:33N 50°39' E 000°42'1212.0
2015-May-25 11:33N 50°47' E 000°56'1313.0
2015-May-25 10:33N 50°56' E 001°11'1313.1
2015-May-25 09:33N 51°04' E 001°27'1211.9
2015-May-25 08:34N 51°11' E 001°42'1110.8
2015-May-25 07:33N 51°20' E 001°53'9 8.5
2015-May-25 06:33N 51°24' E 002°05'10 9.8
2015-May-25 05:31N 51°21' E 002°21'2 1.9
2015-May-25 04:24N 51°22' E 002°24'0 0.3
2015-May-25 03:33N 51°22' E 002°25'1010.3
2015-May-25 02:33N 51°22' E 002°41'1010.2
2015-May-25 01:33N 51°23' E 002°57'1111.2
2015-May-25 00:32N 51°25' E 003°16'1211.8
2015-May-24 23:33N 51°26' E 003°34'1 1.4
2015-May-24 22:28N 51°27' E 003°36'0 0.0
2015-May-24 21:28N 51°27' E 003°36'0 0.0
2015-May-24 20:28N 51°27' E 003°36'0 0.0
2015-May-24 19:28N 51°27' E 003°36'0 0.0
2015-May-24 18:28N 51°27' E 003°36'0 0.0
2015-May-24 17:28N 51°27' E 003°36'0 0.0
2015-May-24 16:28N 51°27' E 003°36'0 0.0
2015-May-24 15:28N 51°27' E 003°36'0 0.0
2015-May-24 14:29N 51°27' E 003°36'0 0.0
2015-May-24 13:28N 51°27' E 003°36'0 0.0
2015-May-24 12:28N 51°27' E 003°36'0 0.0
2015-May-24 11:31N 51°27' E 003°36'0 0.0
2015-May-24 10:28N 51°27' E 003°36'0 0.0
2015-May-24 09:28N 51°27' E 003°36'0 0.0
2015-May-24 08:31N 51°27' E 003°36'0 0.0
2015-May-24 07:28N 51°27' E 003°36'0 0.0
2015-May-24 06:28N 51°27' E 003°36'0 0.0
2015-May-24 05:28N 51°27' E 003°36'0 0.0
2015-May-24 04:31N 51°27' E 003°36'0 0.0
2015-May-24 03:28N 51°27' E 003°36'0 0.0
2015-May-24 02:28N 51°27' E 003°36'0 0.0
2015-May-24 01:28N 51°27' E 003°36'0 0.0
2015-May-24 00:31N 51°27' E 003°36'0 0.0
2015-May-23 23:28N 51°27' E 003°36'0 0.0
2015-May-23 22:28N 51°27' E 003°36'1 1.2
2015-May-23 21:33N 51°26' E 003°34'10 9.5
2015-May-23 20:33N 51°34' E 003°25'1111.1
2015-May-23 19:32N 51°43' E 003°15'1111.4
2015-May-23 18:32N 51°54' E 003°18'1211.1
2015-May-23 17:29N 52°03' E 003°31'1111.9
2015-May-23 16:33N 52°03' E 003°49'1010.2
2015-May-23 15:33N 51°59' E 004°05'1111.3
2015-May-23 14:33N 51°54' E 004°21'0 0.1
2015-May-23 12:20N 51°54' E 004°22'1 1.8
2015-May-23 11:33N 51°54' E 004°20'7 7.3
2015-May-23 10:34N 51°57' E 004°09'8 7.6
2015-May-23 09:34N 51°60' E 003°58'9 9.1
2015-May-23 08:33N 51°59' E 003°43'1211.3
2015-May-23 07:29N 51°55' E 003°24'1111.8
2015-May-23 06:33N 51°45' E 003°16'1212.0
2015-May-23 05:33N 51°34' E 003°25'1111.2
2015-May-23 04:33N 51°26' E 003°36'1 0.9
2015-May-23 03:32N 51°25' E 003°37'0 0.1
2015-May-23 02:33N 51°25' E 003°37'0 0.0
2015-May-23 01:33N 51°25' E 003°37'4 4.2
2015-May-23 00:33N 51°25' E 003°31'1211.9
2015-May-22 23:33N 51°24' E 003°11'1010.5
2015-May-22 22:33N 51°22' E 002°55'1110.8
2015-May-22 21:33N 51°22' E 002°38'1211.1
2015-May-22 20:29N 51°19' E 002°19'1112.0
2015-May-22 19:33N 51°14' E 002°04'1312.5
2015-May-22 18:33N 51°07' E 001°47'1313.3
2015-May-22 17:33N 50°58' E 001°32'1413.8
2015-May-22 16:34N 50°45' E 001°23'7911.2
2015-May-22 09:31N 50°33' W 000°40'1313.6
2015-May-22 08:34N 50°39' W 000°58'1010.3
2015-May-22 07:34N 50°46' W 001°10'8 7.3
2015-May-22 06:31N 50°50' W 001°20'0 0.0
2015-May-22 05:28N 50°50' W 001°20'0 0.0
2015-May-22 04:31N 50°50' W 001°20'0 0.0
2015-May-22 03:31N 50°50' W 001°20'0 0.0
2015-May-22 02:31N 50°50' W 001°20'0 0.0
2015-May-22 01:31N 50°50' W 001°20'0 0.0
2015-May-22 00:31N 50°50' W 001°20'0 0.0
2015-May-21 23:31N 50°50' W 001°20'0 0.0
2015-May-21 22:31N 50°50' W 001°20'0 0.0
2015-May-21 21:31N 50°50' W 001°20'0 0.0
2015-May-21 20:31N 50°50' W 001°20'0 0.0
2015-May-21 19:28N 50°50' W 001°20'0 0.0
2015-May-21 18:31N 50°50' W 001°20'0 0.0
2015-May-21 17:31N 50°50' W 001°20'0 0.0
2015-May-21 16:31N 50°50' W 001°20'0 0.0
2015-May-21 15:31N 50°50' W 001°20'0 0.0
2015-May-21 14:28N 50°50' W 001°20'0 0.0
2015-May-21 13:31N 50°50' W 001°20'0 0.0
2015-May-21 12:31N 50°50' W 001°20'0 0.0
2015-May-21 11:31N 50°50' W 001°20'0 0.0
2015-May-21 10:25N 50°50' W 001°20'0 0.0
2015-May-21 09:28N 50°50' W 001°20'0 0.0
2015-May-21 08:31N 50°50' W 001°20'0 0.0
2015-May-21 07:31N 50°50' W 001°20'0 0.0
2015-May-21 06:31N 50°50' W 001°20'0 0.0
2015-May-21 05:31N 50°50' W 001°20'0 0.0
2015-May-21 04:31N 50°50' W 001°20'0 0.0
2015-May-21 03:31N 50°50' W 001°20'0 0.0
2015-May-21 02:28N 50°50' W 001°20'3 2.9
2015-May-21 01:33N 50°48' W 001°17'1010.5
2015-May-21 00:33N 50°44' W 001°02'4 4.3
2015-May-20 23:33N 50°39' W 001°01'0 0.3
2015-May-20 22:33N 50°39' W 001°01'0 0.0
2015-May-20 21:33N 50°39' W 001°01'0 0.0
2015-May-20 20:33N 50°39' W 001°01'0 0.0
2015-May-20 19:33N 50°39' W 001°01'0 0.1
2015-May-20 18:33N 50°39' W 001°01'0 0.1
2015-May-20 17:33N 50°39' W 001°01'0 0.0
2015-May-20 16:33N 50°39' W 001°01'0 0.0
2015-May-20 15:33N 50°39' W 001°01'0 0.0
2015-May-20 14:33N 50°39' W 001°01'0 0.0
2015-May-20 13:33N 50°39' W 001°01'0 0.1
2015-May-20 12:30N 50°39' W 001°01'0 0.1
2015-May-20 11:33N 50°39' W 001°01'6 6.2
2015-May-20 10:33N 50°33' W 000°58'  
Track history (hours):
 
Tides and Currents Weather Stations Pressure Air Temp Water Temp Dewpoint Dewpoint Depression Visibility Wind Speed Wind Dir Waves Ship Positions

M/T Filos

Last reported at 2015-May-29 07:32 UTC. Time now 2015-May-29 08:19 UTC.
Position N 46°09' W 001°14'.

Length 180 m; draft 7.4 m.

Type: Tanker. MMSI: 224561000.

Date/timePositionNaut miles runAvg speedWind from/ knotsBaromVisibWave heightAir tempDewpointWater temp
2015-May-29 07:32N 46°09' W 001°14'0 0.0
2015-May-29 06:32N 46°09' W 001°14'0 0.0
2015-May-29 05:32N 46°09' W 001°14'0 0.0
2015-May-29 04:32N 46°09' W 001°14'0 0.0
2015-May-29 03:32N 46°09' W 001°14'0 0.0
2015-May-29 02:32N 46°09' W 001°14'0 0.0
2015-May-29 01:32N 46°09' W 001°14'0 0.0
2015-May-29 00:33N 46°09' W 001°14'5 4.5
2015-May-28 23:32N 46°05' W 001°15'0 0.1
2015-May-28 22:32N 46°05' W 001°15'0 0.1
2015-May-28 21:33N 46°05' W 001°15'10 9.6
2015-May-28 20:33N 46°07' W 001°28'1211.5
2015-May-28 19:33N 46°07' W 001°45'10 9.7
2015-May-28 18:33N 45°57' W 001°43'1111.0
2015-May-28 17:33N 45°47' W 001°36'1111.0
2015-May-28 16:33N 45°37' W 001°30'1410.7
2015-May-28 15:17N 45°39' W 001°11'45 2.7
2015-May-27 22:33N 45°02' W 000°37'1312.8
2015-May-27 21:34N 45°14' W 000°44'1212.0
2015-May-27 20:33N 45°25' W 000°51'1611.5
2015-May-27 19:08N 45°37' W 001°06'8 9.6
2015-May-27 18:21N 45°39' W 001°16'8 9.8
2015-May-27 17:33N 45°36' W 001°27'1211.6
2015-May-27 16:34N 45°42' W 001°41'1111.5
2015-May-27 15:33N 45°48' W 001°55'1211.7
2015-May-27 14:34N 45°54' W 002°09'5011.6
2015-May-27 10:13N 46°22' W 003°10'811.6
2015-May-27 09:29N 46°27' W 003°19'1111.5
2015-May-27 08:31N 46°34' W 003°32'1111.3
2015-May-27 07:33N 46°41' W 003°44'1311.0
2015-May-27 06:24N 46°49' W 003°58'1210.7
2015-May-27 05:18N 46°57' W 004°12'810.8
2015-May-27 04:31N 47°02' W 004°21'1010.7
2015-May-27 03:33N 47°08' W 004°33'1110.9
2015-May-27 02:32N 47°15' W 004°46'50 7.1
2015-May-26 19:32N 47°50' W 005°39'168 9.2
2015-May-26 01:18N 49°59' W 002°55'810.4
2015-May-26 00:33N 50°01' W 002°44'6511.8
2015-May-25 19:03N 50°18' W 001°05'1113.3
2015-May-25 18:14N 50°20' W 000°49'912.4
2015-May-25 17:31N 50°23' W 000°36'2311.1
2015-May-25 15:29N 50°29' W 000°01'910.1
2015-May-25 14:33N 50°31' E 000°13'10 9.9
2015-May-25 13:33N 50°34' E 000°28'1010.3
2015-May-25 12:33N 50°39' E 000°42'1212.0
2015-May-25 11:33N 50°47' E 000°56'1313.0
2015-May-25 10:33N 50°56' E 001°11'1313.1
2015-May-25 09:33N 51°04' E 001°27'1211.9
2015-May-25 08:34N 51°11' E 001°42'1110.8
2015-May-25 07:33N 51°20' E 001°53'9 8.5
2015-May-25 06:33N 51°24' E 002°05'10 9.8
2015-May-25 05:31N 51°21' E 002°21'2 1.9
2015-May-25 04:24N 51°22' E 002°24'0 0.3
2015-May-25 03:33N 51°22' E 002°25'1010.3
2015-May-25 02:33N 51°22' E 002°41'1010.2
2015-May-25 01:33N 51°23' E 002°57'1111.2
2015-May-25 00:32N 51°25' E 003°16'1211.8
2015-May-24 23:33N 51°26' E 003°34'1 1.4
2015-May-24 22:28N 51°27' E 003°36'0 0.0
2015-May-24 21:28N 51°27' E 003°36'0 0.0
2015-May-24 20:28N 51°27' E 003°36'0 0.0
2015-May-24 19:28N 51°27' E 003°36'0 0.0
2015-May-24 18:28N 51°27' E 003°36'0 0.0
2015-May-24 17:28N 51°27' E 003°36'0 0.0
2015-May-24 16:28N 51°27' E 003°36'0 0.0
2015-May-24 15:28N 51°27' E 003°36'0 0.0
2015-May-24 14:29N 51°27' E 003°36'0 0.0
2015-May-24 13:28N 51°27' E 003°36'0 0.0
2015-May-24 12:28N 51°27' E 003°36'0 0.0
2015-May-24 11:31N 51°27' E 003°36'0 0.0
2015-May-24 10:28N 51°27' E 003°36'0 0.0
2015-May-24 09:28N 51°27' E 003°36'0 0.0
2015-May-24 08:31N 51°27' E 003°36'0 0.0
2015-May-24 07:28N 51°27' E 003°36'0 0.0
2015-May-24 06:28N 51°27' E 003°36'0 0.0
2015-May-24 05:28N 51°27' E 003°36'0 0.0
2015-May-24 04:31N 51°27' E 003°36'0 0.0
2015-May-24 03:28N 51°27' E 003°36'0 0.0
2015-May-24 02:28N 51°27' E 003°36'0 0.0
2015-May-24 01:28N 51°27' E 003°36'0 0.0
2015-May-24 00:31N 51°27' E 003°36'0 0.0
2015-May-23 23:28N 51°27' E 003°36'0 0.0
2015-May-23 22:28N 51°27' E 003°36'1 1.2
2015-May-23 21:33N 51°26' E 003°34'10 9.5
2015-May-23 20:33N 51°34' E 003°25'1111.1
2015-May-23 19:32N 51°43' E 003°15'1111.4
2015-May-23 18:32N 51°54' E 003°18'1211.1
2015-May-23 17:29N 52°03' E 003°31'1111.9
2015-May-23 16:33N 52°03' E 003°49'1010.2
2015-May-23 15:33N 51°59' E 004°05'1111.3
2015-May-23 14:33N 51°54' E 004°21'0 0.1
2015-May-23 12:20N 51°54' E 004°22'1 1.8
2015-May-23 11:33N 51°54' E 004°20'7 7.3
2015-May-23 10:34N 51°57' E 004°09'8 7.6
2015-May-23 09:34N 51°60' E 003°58'9 9.1
2015-May-23 08:33N 51°59' E 003°43'1211.3
2015-May-23 07:29N 51°55' E 003°24'1111.8
2015-May-23 06:33N 51°45' E 003°16'1212.0
2015-May-23 05:33N 51°34' E 003°25'1111.2
2015-May-23 04:33N 51°26' E 003°36'1 0.9
2015-May-23 03:32N 51°25' E 003°37'0 0.1
2015-May-23 02:33N 51°25' E 003°37'0 0.0
2015-May-23 01:33N 51°25' E 003°37'4 4.2
2015-May-23 00:33N 51°25' E 003°31'1211.9
2015-May-22 23:33N 51°24' E 003°11'1010.5
2015-May-22 22:33N 51°22' E 002°55'1110.8
2015-May-22 21:33N 51°22' E 002°38'1211.1
2015-May-22 20:29N 51°19' E 002°19'1112.0
2015-May-22 19:33N 51°14' E 002°04'1312.5
2015-May-22 18:33N 51°07' E 001°47'1313.3
2015-May-22 17:33N 50°58' E 001°32'1413.8
2015-May-22 16:34N 50°45' E 001°23'7911.2
2015-May-22 09:31N 50°33' W 000°40'1313.6
2015-May-22 08:34N 50°39' W 000°58'1010.3
2015-May-22 07:34N 50°46' W 001°10'8 7.3
2015-May-22 06:31N 50°50' W 001°20'0 0.0
2015-May-22 05:28N 50°50' W 001°20'0 0.0
2015-May-22 04:31N 50°50' W 001°20'0 0.0
2015-May-22 03:31N 50°50' W 001°20'0 0.0
2015-May-22 02:31N 50°50' W 001°20'0 0.0
2015-May-22 01:31N 50°50' W 001°20'0 0.0
2015-May-22 00:31N 50°50' W 001°20'0 0.0
2015-May-21 23:31N 50°50' W 001°20'0 0.0
2015-May-21 22:31N 50°50' W 001°20'0 0.0
2015-May-21 21:31N 50°50' W 001°20'0 0.0
2015-May-21 20:31N 50°50' W 001°20'0 0.0
2015-May-21 19:28N 50°50' W 001°20'0 0.0
2015-May-21 18:31N 50°50' W 001°20'0 0.0
2015-May-21 17:31N 50°50' W 001°20'0 0.0
2015-May-21 16:31N 50°50' W 001°20'0 0.0
2015-May-21 15:31N 50°50' W 001°20'0 0.0
2015-May-21 14:28N 50°50' W 001°20'0 0.0
2015-May-21 13:31N 50°50' W 001°20'0 0.0
2015-May-21 12:31N 50°50' W 001°20'0 0.0
2015-May-21 11:31N 50°50' W 001°20'0 0.0
2015-May-21 10:25N 50°50' W 001°20'0 0.0
2015-May-21 09:28N 50°50' W 001°20'0 0.0
2015-May-21 08:31N 50°50' W 001°20'0 0.0
2015-May-21 07:31N 50°50' W 001°20'0 0.0
2015-May-21 06:31N 50°50' W 001°20'0 0.0
2015-May-21 05:31N 50°50' W 001°20'0 0.0
2015-May-21 04:31N 50°50' W 001°20'0 0.0
2015-May-21 03:31N 50°50' W 001°20'0 0.0
2015-May-21 02:28N 50°50' W 001°20'3 2.9
2015-May-21 01:33N 50°48' W 001°17'1010.5
2015-May-21 00:33N 50°44' W 001°02'4 4.3
2015-May-20 23:33N 50°39' W 001°01'0 0.3
2015-May-20 22:33N 50°39' W 001°01'0 0.0
2015-May-20 21:33N 50°39' W 001°01'0 0.0
2015-May-20 20:33N 50°39' W 001°01'0 0.0
2015-May-20 19:33N 50°39' W 001°01'0 0.1
2015-May-20 18:33N 50°39' W 001°01'0 0.1
2015-May-20 17:33N 50°39' W 001°01'0 0.0
2015-May-20 16:33N 50°39' W 001°01'0 0.0
2015-May-20 15:33N 50°39' W 001°01'0 0.0
2015-May-20 14:33N 50°39' W 001°01'0 0.0
2015-May-20 13:33N 50°39' W 001°01'0 0.1
2015-May-20 12:30N 50°39' W 001°01'0 0.1
2015-May-20 11:33N 50°39' W 001°01'6 6.2
2015-May-20 10:33N 50°33' W 000°58'  

Dump ship's entire track history